sensor_id;sensor_type;location;lat;lon;timestamp;temperature;humidity
19878;DHT22;10101;52.204;9.910;2022-12-11T00:02:19;-0.70;99.90
19878;DHT22;10101;52.204;9.910;2022-12-11T00:04:45;-0.60;99.90
19878;DHT22;10101;52.204;9.910;2022-12-11T00:07:12;-0.70;99.90
19878;DHT22;10101;52.204;9.910;2022-12-11T00:09:39;-0.70;99.90
19878;DHT22;10101;52.204;9.910;2022-12-11T00:12:06;-0.80;99.90
19878;DHT22;10101;52.204;9.910;2022-12-11T00:14:33;-0.90;99.90
19878;DHT22;10101;52.204;9.910;2022-12-11T00:17:00;-0.90;99.90
19878;DHT22;10101;52.204;9.910;2022-12-11T00:19:28;-0.90;99.90
19878;DHT22;10101;52.204;9.910;2022-12-11T00:21:55;-1.00;99.90
19878;DHT22;10101;52.204;9.910;2022-12-11T00:24:22;-0.80;99.90
19878;DHT22;10101;52.204;9.910;2022-12-11T00:26:49;-0.90;99.90
19878;DHT22;10101;52.204;9.910;2022-12-11T00:29:16;-0.90;99.90
19878;DHT22;10101;52.204;9.910;2022-12-11T00:31:42;-1.00;99.90
19878;DHT22;10101;52.204;9.910;2022-12-11T00:34:09;-0.90;99.90
19878;DHT22;10101;52.204;9.910;2022-12-11T00:36:38;-0.90;99.90
19878;DHT22;10101;52.204;9.910;2022-12-11T00:39:05;-0.90;99.90
19878;DHT22;10101;52.204;9.910;2022-12-11T00:41:32;-0.90;99.90
19878;DHT22;10101;52.204;9.910;2022-12-11T00:43:59;-0.90;99.90
19878;DHT22;10101;52.204;9.910;2022-12-11T00:46:26;-0.90;99.90
19878;DHT22;10101;52.204;9.910;2022-12-11T00:48:53;-0.90;99.90
19878;DHT22;10101;52.204;9.910;2022-12-11T00:51:20;-0.90;99.90
19878;DHT22;10101;52.204;9.910;2022-12-11T00:53:48;-1.00;99.90
19878;DHT22;10101;52.204;9.910;2022-12-11T00:56:16;-1.10;99.90
19878;DHT22;10101;52.204;9.910;2022-12-11T00:58:43;-1.20;99.90
19878;DHT22;10101;52.204;9.910;2022-12-11T01:01:12;-1.30;99.90
19878;DHT22;10101;52.204;9.910;2022-12-11T01:03:39;-1.40;99.90
19878;DHT22;10101;52.204;9.910;2022-12-11T01:06:06;-1.30;99.90
19878;DHT22;10101;52.204;9.910;2022-12-11T01:08:33;-1.20;99.90
19878;DHT22;10101;52.204;9.910;2022-12-11T01:11:03;-1.20;99.90
19878;DHT22;10101;52.204;9.910;2022-12-11T01:13:29;-1.10;99.90
19878;DHT22;10101;52.204;9.910;2022-12-11T01:15:56;-0.90;99.90
19878;DHT22;10101;52.204;9.910;2022-12-11T01:18:23;-1.00;99.90
19878;DHT22;10101;52.204;9.910;2022-12-11T01:20:49;-1.00;99.90
19878;DHT22;10101;52.204;9.910;2022-12-11T01:23:16;-1.10;99.90
19878;DHT22;10101;52.204;9.910;2022-12-11T01:25:43;-1.10;99.90
19878;DHT22;10101;52.204;9.910;2022-12-11T01:28:11;-1.20;99.90
19878;DHT22;10101;52.204;9.910;2022-12-11T01:30:40;-1.20;99.90
19878;DHT22;10101;52.204;9.910;2022-12-11T01:33:07;-1.00;99.90
19878;DHT22;10101;52.204;9.910;2022-12-11T01:35:34;-0.90;99.90
19878;DHT22;10101;52.204;9.910;2022-12-11T01:38:00;-0.80;99.90
19878;DHT22;10101;52.204;9.910;2022-12-11T01:40:27;-0.80;99.90
19878;DHT22;10101;52.204;9.910;2022-12-11T01:42:54;-0.90;99.90
19878;DHT22;10101;52.204;9.910;2022-12-11T01:45:32;-0.90;99.90
19878;DHT22;10101;52.204;9.910;2022-12-11T01:48:07;-1.00;99.90
19878;DHT22;10101;52.204;9.910;2022-12-11T01:50:38;-0.90;99.90
19878;DHT22;10101;52.204;9.910;2022-12-11T01:53:08;-1.00;99.90
19878;DHT22;10101;52.204;9.910;2022-12-11T01:55:37;-0.90;99.90
19878;DHT22;10101;52.204;9.910;2022-12-11T01:58:05;-0.90;99.90
19878;DHT22;10101;52.204;9.910;2022-12-11T02:00:35;-0.80;99.90
19878;DHT22;10101;52.204;9.910;2022-12-11T02:03:01;-0.80;99.90
19878;DHT22;10101;52.204;9.910;2022-12-11T02:05:28;-0.90;99.90
19878;DHT22;10101;52.204;9.910;2022-12-11T02:07:58;-1.00;99.90
19878;DHT22;10101;52.204;9.910;2022-12-11T02:10:34;-1.00;99.90
19878;DHT22;10101;52.204;9.910;2022-12-11T02:13:06;-0.90;99.90
19878;DHT22;10101;52.204;9.910;2022-12-11T02:15:41;-0.80;99.90
19878;DHT22;10101;52.204;9.910;2022-12-11T02:18:17;-0.90;99.90
19878;DHT22;10101;52.204;9.910;2022-12-11T02:20:51;-1.00;99.90
19878;DHT22;10101;52.204;9.910;2022-12-11T02:23:57;-1.10;99.90
19878;DHT22;10101;52.204;9.910;2022-12-11T02:26:51;-1.10;99.90
19878;DHT22;10101;52.204;9.910;2022-12-11T02:29:24;-1.10;99.90
19878;DHT22;10101;52.204;9.910;2022-12-11T02:31:58;-1.10;99.90
19878;DHT22;10101;52.204;9.910;2022-12-11T02:34:31;-1.00;99.90
19878;DHT22;10101;52.204;9.910;2022-12-11T02:37:04;-0.80;99.90
19878;DHT22;10101;52.204;9.910;2022-12-11T02:39:33;-0.80;99.90
19878;DHT22;10101;52.204;9.910;2022-12-11T02:42:02;-0.80;99.90
19878;DHT22;10101;52.204;9.910;2022-12-11T02:44:33;-0.90;99.90
19878;DHT22;10101;52.204;9.910;2022-12-11T02:47:02;-0.90;99.90
19878;DHT22;10101;52.204;9.910;2022-12-11T02:49:31;-0.80;99.90
19878;DHT22;10101;52.204;9.910;2022-12-11T02:51:59;-0.90;99.90
19878;DHT22;10101;52.204;9.910;2022-12-11T02:54:29;-1.10;99.90
19878;DHT22;10101;52.204;9.910;2022-12-11T02:57:01;-1.10;99.90
19878;DHT22;10101;52.204;9.910;2022-12-11T02:59:34;-1.30;99.90
19878;DHT22;10101;52.204;9.910;2022-12-11T03:02:02;-1.40;99.90
19878;DHT22;10101;52.204;9.910;2022-12-11T03:04:29;-1.40;99.90
19878;DHT22;10101;52.204;9.910;2022-12-11T03:07:00;-1.20;99.90
19878;DHT22;10101;52.204;9.910;2022-12-11T03:09:36;-1.10;99.90
19878;DHT22;10101;52.204;9.910;2022-12-11T03:12:04;-1.10;99.90
19878;DHT22;10101;52.204;9.910;2022-12-11T03:14:30;-1.10;99.90
19878;DHT22;10101;52.204;9.910;2022-12-11T03:17:03;-1.20;99.90
19878;DHT22;10101;52.204;9.910;2022-12-11T03:19:35;-1.30;99.90
19878;DHT22;10101;52.204;9.910;2022-12-11T03:22:08;-1.20;99.90
19878;DHT22;10101;52.204;9.910;2022-12-11T03:24:41;-1.20;99.90
19878;DHT22;10101;52.204;9.910;2022-12-11T03:27:14;-1.20;99.90
19878;DHT22;10101;52.204;9.910;2022-12-11T03:29:47;-1.20;99.90
19878;DHT22;10101;52.204;9.910;2022-12-11T03:32:22;-1.40;99.90
19878;DHT22;10101;52.204;9.910;2022-12-11T03:34:54;-1.30;99.90
19878;DHT22;10101;52.204;9.910;2022-12-11T03:37:23;-1.10;99.90
19878;DHT22;10101;52.204;9.910;2022-12-11T03:39:55;-1.10;99.90
19878;DHT22;10101;52.204;9.910;2022-12-11T03:42:23;-1.10;99.90
19878;DHT22;10101;52.204;9.910;2022-12-11T03:44:53;-1.10;99.90
19878;DHT22;10101;52.204;9.910;2022-12-11T03:47:25;-1.00;99.90
19878;DHT22;10101;52.204;9.910;2022-12-11T03:49:53;-1.00;99.90
19878;DHT22;10101;52.204;9.910;2022-12-11T03:52:21;-1.00;99.90
19878;DHT22;10101;52.204;9.910;2022-12-11T03:54:49;-1.00;99.90
19878;DHT22;10101;52.204;9.910;2022-12-11T03:57:19;-1.10;99.90
19878;DHT22;10101;52.204;9.910;2022-12-11T03:59:47;-1.10;99.90
19878;DHT22;10101;52.204;9.910;2022-12-11T04:02:14;-1.10;99.90
19878;DHT22;10101;52.204;9.910;2022-12-11T04:04:42;-1.20;99.90
19878;DHT22;10101;52.204;9.910;2022-12-11T04:07:09;-1.20;99.90
19878;DHT22;10101;52.204;9.910;2022-12-11T04:09:35;-1.20;99.90
19878;DHT22;10101;52.204;9.910;2022-12-11T04:12:02;-1.20;99.90
19878;DHT22;10101;52.204;9.910;2022-12-11T04:14:29;-1.20;99.90
19878;DHT22;10101;52.204;9.910;2022-12-11T04:17:14;-1.20;99.90
19878;DHT22;10101;52.204;9.910;2022-12-11T04:20:02;-1.20;99.90
19878;DHT22;10101;52.204;9.910;2022-12-11T04:22:49;-1.20;99.90
19878;DHT22;10101;52.204;9.910;2022-12-11T04:25:33;-1.20;99.90
19878;DHT22;10101;52.204;9.910;2022-12-11T04:27:59;-1.20;99.90
19878;DHT22;10101;52.204;9.910;2022-12-11T04:30:26;-1.10;99.90
19878;DHT22;10101;52.204;9.910;2022-12-11T04:32:53;-1.20;99.90
19878;DHT22;10101;52.204;9.910;2022-12-11T04:35:21;-1.20;99.90
19878;DHT22;10101;52.204;9.910;2022-12-11T04:37:48;-1.20;99.90
19878;DHT22;10101;52.204;9.910;2022-12-11T04:40:17;-1.10;99.90
19878;DHT22;10101;52.204;9.910;2022-12-11T04:42:44;-1.10;99.90
19878;DHT22;10101;52.204;9.910;2022-12-11T04:45:12;-1.10;99.90
19878;DHT22;10101;52.204;9.910;2022-12-11T04:47:40;-1.10;99.90
19878;DHT22;10101;52.204;9.910;2022-12-11T04:50:09;-1.00;99.90
19878;DHT22;10101;52.204;9.910;2022-12-11T04:52:37;-1.20;99.90
19878;DHT22;10101;52.204;9.910;2022-12-11T04:55:04;-1.20;99.90
19878;DHT22;10101;52.204;9.910;2022-12-11T04:57:31;-1.20;99.90
19878;DHT22;10101;52.204;9.910;2022-12-11T04:59:58;-1.10;99.90
19878;DHT22;10101;52.204;9.910;2022-12-11T05:02:26;-1.20;99.90
19878;DHT22;10101;52.204;9.910;2022-12-11T05:04:53;-1.30;99.90
19878;DHT22;10101;52.204;9.910;2022-12-11T05:07:19;-1.30;99.90
19878;DHT22;10101;52.204;9.910;2022-12-11T05:09:48;-1.20;99.90
19878;DHT22;10101;52.204;9.910;2022-12-11T05:12:15;-1.20;99.90
19878;DHT22;10101;52.204;9.910;2022-12-11T05:14:41;-1.20;99.90
19878;DHT22;10101;52.204;9.910;2022-12-11T05:17:09;-1.20;99.90
19878;DHT22;10101;52.204;9.910;2022-12-11T05:19:35;-1.20;99.90
19878;DHT22;10101;52.204;9.910;2022-12-11T05:22:02;-1.20;99.90
19878;DHT22;10101;52.204;9.910;2022-12-11T05:24:29;-1.20;99.90
19878;DHT22;10101;52.204;9.910;2022-12-11T05:26:57;-1.20;99.90
19878;DHT22;10101;52.204;9.910;2022-12-11T05:29:23;-1.20;99.90
19878;DHT22;10101;52.204;9.910;2022-12-11T05:31:50;-1.10;99.90
19878;DHT22;10101;52.204;9.910;2022-12-11T05:34:17;-1.20;99.90
19878;DHT22;10101;52.204;9.910;2022-12-11T05:36:43;-1.20;99.90
19878;DHT22;10101;52.204;9.910;2022-12-11T05:39:10;-1.20;99.90
19878;DHT22;10101;52.204;9.910;2022-12-11T05:41:37;-1.20;99.90
19878;DHT22;10101;52.204;9.910;2022-12-11T05:44:06;-1.30;99.90
19878;DHT22;10101;52.204;9.910;2022-12-11T05:46:32;-1.20;99.90
19878;DHT22;10101;52.204;9.910;2022-12-11T05:49:01;-1.20;99.90
19878;DHT22;10101;52.204;9.910;2022-12-11T05:51:29;-1.10;99.90
19878;DHT22;10101;52.204;9.910;2022-12-11T05:53:56;-1.30;99.90
19878;DHT22;10101;52.204;9.910;2022-12-11T05:56:25;-1.30;99.90
19878;DHT22;10101;52.204;9.910;2022-12-11T05:58:52;-1.30;99.90
19878;DHT22;10101;52.204;9.910;2022-12-11T06:01:24;-1.30;99.90
19878;DHT22;10101;52.204;9.910;2022-12-11T06:03:52;-1.30;99.90
19878;DHT22;10101;52.204;9.910;2022-12-11T06:06:19;-1.30;99.90
19878;DHT22;10101;52.204;9.910;2022-12-11T06:08:48;-1.30;99.90
19878;DHT22;10101;52.204;9.910;2022-12-11T06:11:15;-1.30;99.90
19878;DHT22;10101;52.204;9.910;2022-12-11T06:13:42;-1.30;99.90
19878;DHT22;10101;52.204;9.910;2022-12-11T06:16:09;-1.30;99.90
19878;DHT22;10101;52.204;9.910;2022-12-11T06:18:38;-1.40;99.90
19878;DHT22;10101;52.204;9.910;2022-12-11T06:21:12;-1.30;99.90
19878;DHT22;10101;52.204;9.910;2022-12-11T06:23:39;-1.30;99.90
19878;DHT22;10101;52.204;9.910;2022-12-11T06:26:07;-1.30;99.90
19878;DHT22;10101;52.204;9.910;2022-12-11T06:28:33;-1.30;99.90
19878;DHT22;10101;52.204;9.910;2022-12-11T06:31:00;-1.30;99.90
19878;DHT22;10101;52.204;9.910;2022-12-11T06:33:27;-1.20;99.90
19878;DHT22;10101;52.204;9.910;2022-12-11T06:35:56;-1.30;99.90
19878;DHT22;10101;52.204;9.910;2022-12-11T06:38:26;-1.30;99.90
19878;DHT22;10101;52.204;9.910;2022-12-11T06:40:56;-1.30;99.90
19878;DHT22;10101;52.204;9.910;2022-12-11T06:43:23;-1.20;99.90
19878;DHT22;10101;52.204;9.910;2022-12-11T06:45:50;-1.20;99.90
19878;DHT22;10101;52.204;9.910;2022-12-11T06:48:17;-1.20;99.90
19878;DHT22;10101;52.204;9.910;2022-12-11T06:50:44;-1.30;99.90
19878;DHT22;10101;52.204;9.910;2022-12-11T06:53:13;-1.20;99.90
19878;DHT22;10101;52.204;9.910;2022-12-11T06:55:40;-1.20;99.90
19878;DHT22;10101;52.204;9.910;2022-12-11T06:58:07;-1.30;99.90
19878;DHT22;10101;52.204;9.910;2022-12-11T07:00:35;-1.30;99.90
19878;DHT22;10101;52.204;9.910;2022-12-11T07:03:03;-1.40;99.90
19878;DHT22;10101;52.204;9.910;2022-12-11T07:05:31;-1.50;99.90
19878;DHT22;10101;52.204;9.910;2022-12-11T07:07:57;-1.40;99.90
19878;DHT22;10101;52.204;9.910;2022-12-11T07:10:25;-1.30;99.90
19878;DHT22;10101;52.204;9.910;2022-12-11T07:12:52;-1.30;99.90
19878;DHT22;10101;52.204;9.910;2022-12-11T07:15:19;-1.20;99.90
19878;DHT22;10101;52.204;9.910;2022-12-11T07:17:46;-1.20;99.90
19878;DHT22;10101;52.204;9.910;2022-12-11T07:20:13;-1.10;99.90
19878;DHT22;10101;52.204;9.910;2022-12-11T07:22:41;-1.20;99.90
19878;DHT22;10101;52.204;9.910;2022-12-11T07:25:08;-1.30;99.90
19878;DHT22;10101;52.204;9.910;2022-12-11T07:27:36;-1.20;99.90
19878;DHT22;10101;52.204;9.910;2022-12-11T07:30:04;-1.30;99.90
19878;DHT22;10101;52.204;9.910;2022-12-11T07:32:31;-1.30;99.90
19878;DHT22;10101;52.204;9.910;2022-12-11T07:34:57;-1.30;99.90
19878;DHT22;10101;52.204;9.910;2022-12-11T07:37:24;-1.30;99.90
19878;DHT22;10101;52.204;9.910;2022-12-11T07:39:51;-1.30;99.90
19878;DHT22;10101;52.204;9.910;2022-12-11T07:42:18;-1.30;99.90
19878;DHT22;10101;52.204;9.910;2022-12-11T07:44:46;-1.30;99.90
19878;DHT22;10101;52.204;9.910;2022-12-11T07:47:12;-1.30;99.90
19878;DHT22;10101;52.204;9.910;2022-12-11T07:49:39;-1.30;99.90
19878;DHT22;10101;52.204;9.910;2022-12-11T07:52:06;-1.30;99.90
19878;DHT22;10101;52.204;9.910;2022-12-11T07:54:32;-1.30;99.90
19878;DHT22;10101;52.204;9.910;2022-12-11T07:56:59;-1.20;99.90
19878;DHT22;10101;52.204;9.910;2022-12-11T07:59:26;-1.30;99.90
19878;DHT22;10101;52.204;9.910;2022-12-11T08:01:54;-1.30;99.90
19878;DHT22;10101;52.204;9.910;2022-12-11T08:04:21;-1.40;99.90
19878;DHT22;10101;52.204;9.910;2022-12-11T08:06:47;-1.30;99.90
19878;DHT22;10101;52.204;9.910;2022-12-11T08:09:14;-1.40;99.90
19878;DHT22;10101;52.204;9.910;2022-12-11T08:11:41;-1.30;99.90
19878;DHT22;10101;52.204;9.910;2022-12-11T08:14:08;-1.30;99.90
19878;DHT22;10101;52.204;9.910;2022-12-11T08:16:34;-1.20;99.90
19878;DHT22;10101;52.204;9.910;2022-12-11T08:19:03;-1.20;99.90
19878;DHT22;10101;52.204;9.910;2022-12-11T08:21:30;-1.20;99.90
19878;DHT22;10101;52.204;9.910;2022-12-11T08:23:57;-1.30;99.90
19878;DHT22;10101;52.204;9.910;2022-12-11T08:26:25;-1.30;99.90
19878;DHT22;10101;52.204;9.910;2022-12-11T08:28:53;-1.30;99.90
19878;DHT22;10101;52.204;9.910;2022-12-11T08:31:20;-1.30;99.90
19878;DHT22;10101;52.204;9.910;2022-12-11T08:33:47;-1.30;99.90
19878;DHT22;10101;52.204;9.910;2022-12-11T08:36:17;-1.20;99.90
19878;DHT22;10101;52.204;9.910;2022-12-11T08:38:44;-1.30;99.90
19878;DHT22;10101;52.204;9.910;2022-12-11T08:41:13;-1.20;99.90
19878;DHT22;10101;52.204;9.910;2022-12-11T08:43:40;-1.20;99.90
19878;DHT22;10101;52.204;9.910;2022-12-11T08:46:07;-1.20;99.90
19878;DHT22;10101;52.204;9.910;2022-12-11T08:48:34;-1.10;99.90
19878;DHT22;10101;52.204;9.910;2022-12-11T08:51:03;-1.10;99.90
19878;DHT22;10101;52.204;9.910;2022-12-11T08:53:31;-1.00;99.90
19878;DHT22;10101;52.204;9.910;2022-12-11T08:56:02;-1.00;99.90
19878;DHT22;10101;52.204;9.910;2022-12-11T08:58:28;-1.00;99.90
19878;DHT22;10101;52.204;9.910;2022-12-11T09:00:55;-1.10;99.90
19878;DHT22;10101;52.204;9.910;2022-12-11T09:03:23;-1.10;99.90
19878;DHT22;10101;52.204;9.910;2022-12-11T09:05:50;-1.00;99.90
19878;DHT22;10101;52.204;9.910;2022-12-11T09:08:17;-1.00;99.90
19878;DHT22;10101;52.204;9.910;2022-12-11T09:10:45;-1.00;99.90
19878;DHT22;10101;52.204;9.910;2022-12-11T09:13:11;-1.00;99.90
19878;DHT22;10101;52.204;9.910;2022-12-11T09:15:39;-1.00;99.90
19878;DHT22;10101;52.204;9.910;2022-12-11T09:18:06;-1.00;99.90
19878;DHT22;10101;52.204;9.910;2022-12-11T09:20:33;-1.00;99.90
19878;DHT22;10101;52.204;9.910;2022-12-11T09:23:01;-1.10;99.90
19878;DHT22;10101;52.204;9.910;2022-12-11T09:25:27;-1.10;99.90
19878;DHT22;10101;52.204;9.910;2022-12-11T09:27:55;-1.10;99.90
19878;DHT22;10101;52.204;9.910;2022-12-11T09:30:22;-1.10;99.90
19878;DHT22;10101;52.204;9.910;2022-12-11T09:32:50;-1.10;99.90
19878;DHT22;10101;52.204;9.910;2022-12-11T09:35:17;-1.10;99.90
19878;DHT22;10101;52.204;9.910;2022-12-11T09:37:44;-1.00;99.90
19878;DHT22;10101;52.204;9.910;2022-12-11T09:40:11;-0.90;99.90
19878;DHT22;10101;52.204;9.910;2022-12-11T09:42:47;-0.90;99.90
19878;DHT22;10101;52.204;9.910;2022-12-11T09:45:16;-0.90;99.90
19878;DHT22;10101;52.204;9.910;2022-12-11T09:47:44;-0.80;99.90
19878;DHT22;10101;52.204;9.910;2022-12-11T09:50:16;-0.80;99.90
19878;DHT22;10101;52.204;9.910;2022-12-11T09:52:58;-0.90;99.90
19878;DHT22;10101;52.204;9.910;2022-12-11T09:55:32;-0.80;99.90
19878;DHT22;10101;52.204;9.910;2022-12-11T09:58:05;-0.90;99.90
19878;DHT22;10101;52.204;9.910;2022-12-11T10:00:39;-0.90;99.90
19878;DHT22;10101;52.204;9.910;2022-12-11T10:03:25;-0.90;99.90
19878;DHT22;10101;52.204;9.910;2022-12-11T10:05:58;-0.80;99.90
19878;DHT22;10101;52.204;9.910;2022-12-11T10:08:30;-0.70;99.90
19878;DHT22;10101;52.204;9.910;2022-12-11T10:11:04;-0.80;99.90
19878;DHT22;10101;52.204;9.910;2022-12-11T10:13:38;-0.80;99.90
19878;DHT22;10101;52.204;9.910;2022-12-11T10:16:19;-0.80;99.90
19878;DHT22;10101;52.204;9.910;2022-12-11T10:18:50;-0.70;99.90
19878;DHT22;10101;52.204;9.910;2022-12-11T10:21:18;-0.60;99.90
19878;DHT22;10101;52.204;9.910;2022-12-11T10:23:50;-0.70;99.90
19878;DHT22;10101;52.204;9.910;2022-12-11T10:26:20;-0.70;99.90
19878;DHT22;10101;52.204;9.910;2022-12-11T10:28:47;-0.60;99.90
19878;DHT22;10101;52.204;9.910;2022-12-11T10:31:17;-0.60;99.90
19878;DHT22;10101;52.204;9.910;2022-12-11T10:33:53;-0.70;99.90
19878;DHT22;10101;52.204;9.910;2022-12-11T10:36:28;-0.70;99.90
19878;DHT22;10101;52.204;9.910;2022-12-11T10:38:55;-0.70;99.90
19878;DHT22;10101;52.204;9.910;2022-12-11T10:41:29;-0.50;99.90
19878;DHT22;10101;52.204;9.910;2022-12-11T10:43:58;-0.40;99.90
19878;DHT22;10101;52.204;9.910;2022-12-11T10:46:28;-0.40;99.90
19878;DHT22;10101;52.204;9.910;2022-12-11T10:48:59;-0.30;99.90
19878;DHT22;10101;52.204;9.910;2022-12-11T10:51:35;-0.50;99.90
19878;DHT22;10101;52.204;9.910;2022-12-11T10:54:06;-0.60;99.90
19878;DHT22;10101;52.204;9.910;2022-12-11T10:56:36;-0.60;99.90
19878;DHT22;10101;52.204;9.910;2022-12-11T10:59:03;-0.60;99.90
19878;DHT22;10101;52.204;9.910;2022-12-11T11:01:32;-0.50;99.90
19878;DHT22;10101;52.204;9.910;2022-12-11T11:04:01;-0.40;99.90
19878;DHT22;10101;52.204;9.910;2022-12-11T11:06:29;-0.30;99.90
19878;DHT22;10101;52.204;9.910;2022-12-11T11:08:58;-0.30;99.90
19878;DHT22;10101;52.204;9.910;2022-12-11T11:11:27;-0.30;99.90
19878;DHT22;10101;52.204;9.910;2022-12-11T11:14:05;-0.20;99.90
19878;DHT22;10101;52.204;9.910;2022-12-11T11:16:35;-0.10;99.90
19878;DHT22;10101;52.204;9.910;2022-12-11T11:19:03;-0.20;99.90
19878;DHT22;10101;52.204;9.910;2022-12-11T11:21:32;-0.30;99.90
19878;DHT22;10101;52.204;9.910;2022-12-11T11:23:59;-0.20;99.90
19878;DHT22;10101;52.204;9.910;2022-12-11T11:26:30;-0.20;99.90
19878;DHT22;10101;52.204;9.910;2022-12-11T11:28:58;-0.30;99.90
19878;DHT22;10101;52.204;9.910;2022-12-11T11:31:30;-0.40;99.90
19878;DHT22;10101;52.204;9.910;2022-12-11T11:34:01;-0.50;99.90
19878;DHT22;10101;52.204;9.910;2022-12-11T11:36:33;-0.60;99.90
19878;DHT22;10101;52.204;9.910;2022-12-11T11:39:13;-0.60;99.90
19878;DHT22;10101;52.204;9.910;2022-12-11T11:41:48;-0.60;99.90
19878;DHT22;10101;52.204;9.910;2022-12-11T11:44:21;-0.60;99.90
19878;DHT22;10101;52.204;9.910;2022-12-11T11:46:56;-0.70;99.90
19878;DHT22;10101;52.204;9.910;2022-12-11T11:49:39;-0.60;99.90
19878;DHT22;10101;52.204;9.910;2022-12-11T11:52:12;-0.60;99.90
19878;DHT22;10101;52.204;9.910;2022-12-11T11:54:47;-0.60;99.90
19878;DHT22;10101;52.204;9.910;2022-12-11T11:57:19;-0.60;99.90
19878;DHT22;10101;52.204;9.910;2022-12-11T11:59:51;-0.50;99.90
19878;DHT22;10101;52.204;9.910;2022-12-11T12:02:19;-0.70;99.90
19878;DHT22;10101;52.204;9.910;2022-12-11T12:04:47;-0.70;99.90
19878;DHT22;10101;52.204;9.910;2022-12-11T12:07:27;-0.70;99.90
19878;DHT22;10101;52.204;9.910;2022-12-11T12:10:00;-0.70;99.90
19878;DHT22;10101;52.204;9.910;2022-12-11T12:12:36;-0.70;99.90
19878;DHT22;10101;52.204;9.910;2022-12-11T12:15:17;-0.70;99.90
19878;DHT22;10101;52.204;9.910;2022-12-11T12:17:51;-0.60;99.90
19878;DHT22;10101;52.204;9.910;2022-12-11T12:20:26;-0.60;99.90
19878;DHT22;10101;52.204;9.910;2022-12-11T12:23:08;-0.70;99.90
19878;DHT22;10101;52.204;9.910;2022-12-11T12:25:43;-0.60;99.90
19878;DHT22;10101;52.204;9.910;2022-12-11T12:28:23;-0.60;99.90
19878;DHT22;10101;52.204;9.910;2022-12-11T12:31:06;-0.60;99.90
19878;DHT22;10101;52.204;9.910;2022-12-11T12:33:46;-0.50;99.90
19878;DHT22;10101;52.204;9.910;2022-12-11T12:36:24;-0.40;99.90
19878;DHT22;10101;52.204;9.910;2022-12-11T12:38:54;-0.30;99.90
19878;DHT22;10101;52.204;9.910;2022-12-11T12:41:32;-0.40;99.90
19878;DHT22;10101;52.204;9.910;2022-12-11T12:44:22;-0.40;99.90
19878;DHT22;10101;52.204;9.910;2022-12-11T12:46:54;-0.40;99.90
19878;DHT22;10101;52.204;9.910;2022-12-11T12:49:31;-0.40;99.90
19878;DHT22;10101;52.204;9.910;2022-12-11T12:52:01;-0.20;99.90
19878;DHT22;10101;52.204;9.910;2022-12-11T12:54:30;-0.20;99.90
19878;DHT22;10101;52.204;9.910;2022-12-11T12:56:58;-0.10;99.90
19878;DHT22;10101;52.204;9.910;2022-12-11T12:59:26;-0.40;99.90
19878;DHT22;10101;52.204;9.910;2022-12-11T13:01:54;-0.30;99.90
19878;DHT22;10101;52.204;9.910;2022-12-11T13:04:33;-0.10;99.90
19878;DHT22;10101;52.204;9.910;2022-12-11T13:07:12;-0.10;99.90
19878;DHT22;10101;52.204;9.910;2022-12-11T13:09:40;-0.30;99.90
19878;DHT22;10101;52.204;9.910;2022-12-11T13:12:12;-0.20;99.90
19878;DHT22;10101;52.204;9.910;2022-12-11T13:14:40;0.10;99.90
19878;DHT22;10101;52.204;9.910;2022-12-11T13:17:23;0.10;99.90
19878;DHT22;10101;52.204;9.910;2022-12-11T13:20:02;0.20;99.90
19878;DHT22;10101;52.204;9.910;2022-12-11T13:22:47;0.50;99.90
19878;DHT22;10101;52.204;9.910;2022-12-11T13:25:22;0.50;99.90
19878;DHT22;10101;52.204;9.910;2022-12-11T13:27:49;0.50;99.90
19878;DHT22;10101;52.204;9.910;2022-12-11T13:30:23;0.30;99.90
19878;DHT22;10101;52.204;9.910;2022-12-11T13:33:00;0.30;99.90
19878;DHT22;10101;52.204;9.910;2022-12-11T13:35:29;0.20;99.90
19878;DHT22;10101;52.204;9.910;2022-12-11T13:38:02;0.20;99.90
19878;DHT22;10101;52.204;9.910;2022-12-11T13:40:38;0.10;99.90
19878;DHT22;10101;52.204;9.910;2022-12-11T13:43:14;0.10;99.90
19878;DHT22;10101;52.204;9.910;2022-12-11T13:45:45;0.00;99.90
19878;DHT22;10101;52.204;9.910;2022-12-11T13:48:19;0.10;99.90
19878;DHT22;10101;52.204;9.910;2022-12-11T13:50:47;0.10;99.90
19878;DHT22;10101;52.204;9.910;2022-12-11T13:53:17;0.00;99.90
19878;DHT22;10101;52.204;9.910;2022-12-11T13:55:44;-0.20;99.90
19878;DHT22;10101;52.204;9.910;2022-12-11T13:58:16;-0.10;99.90
19878;DHT22;10101;52.204;9.910;2022-12-11T14:00:53;-0.20;99.90
19878;DHT22;10101;52.204;9.910;2022-12-11T14:03:23;-0.30;99.90
19878;DHT22;10101;52.204;9.910;2022-12-11T14:05:50;-0.40;99.90
19878;DHT22;10101;52.204;9.910;2022-12-11T14:08:21;-0.40;99.90
19878;DHT22;10101;52.204;9.910;2022-12-11T14:10:51;-0.60;99.90
19878;DHT22;10101;52.204;9.910;2022-12-11T14:13:21;-0.70;99.90
19878;DHT22;10101;52.204;9.910;2022-12-11T14:15:49;-0.70;99.90
19878;DHT22;10101;52.204;9.910;2022-12-11T14:18:20;-0.80;99.90
19878;DHT22;10101;52.204;9.910;2022-12-11T14:20:53;-0.90;99.90
19878;DHT22;10101;52.204;9.910;2022-12-11T14:23:23;-0.90;99.90
19878;DHT22;10101;52.204;9.910;2022-12-11T14:25:54;-1.10;99.90
19878;DHT22;10101;52.204;9.910;2022-12-11T14:28:22;-1.10;99.90
19878;DHT22;10101;52.204;9.910;2022-12-11T14:30:53;-1.30;99.90
19878;DHT22;10101;52.204;9.910;2022-12-11T14:33:23;-1.30;99.90
19878;DHT22;10101;52.204;9.910;2022-12-11T14:35:52;-1.30;99.90
19878;DHT22;10101;52.204;9.910;2022-12-11T14:38:24;-1.30;99.90
19878;DHT22;10101;52.204;9.910;2022-12-11T14:40:54;-1.30;99.90
19878;DHT22;10101;52.204;9.910;2022-12-11T14:43:25;-1.40;99.90
19878;DHT22;10101;52.204;9.910;2022-12-11T14:45:56;-1.50;99.90
19878;DHT22;10101;52.204;9.910;2022-12-11T14:48:27;-1.50;99.90
19878;DHT22;10101;52.204;9.910;2022-12-11T14:50:57;-1.50;99.90
19878;DHT22;10101;52.204;9.910;2022-12-11T14:53:28;-1.60;99.90
19878;DHT22;10101;52.204;9.910;2022-12-11T14:55:57;-1.70;99.90
19878;DHT22;10101;52.204;9.910;2022-12-11T14:58:26;-1.80;99.90
19878;DHT22;10101;52.204;9.910;2022-12-11T15:00:58;-1.90;99.90
19878;DHT22;10101;52.204;9.910;2022-12-11T15:03:30;-2.00;99.90
19878;DHT22;10101;52.204;9.910;2022-12-11T15:05:58;-2.00;99.90
19878;DHT22;10101;52.204;9.910;2022-12-11T15:08:28;-2.10;99.90
19878;DHT22;10101;52.204;9.910;2022-12-11T15:11:02;-2.20;99.90
19878;DHT22;10101;52.204;9.910;2022-12-11T15:13:29;-2.20;99.90
19878;DHT22;10101;52.204;9.910;2022-12-11T15:15:57;-2.20;99.90
19878;DHT22;10101;52.204;9.910;2022-12-11T15:18:27;-2.30;99.90
19878;DHT22;10101;52.204;9.910;2022-12-11T15:20:57;-2.40;99.90
19878;DHT22;10101;52.204;9.910;2022-12-11T15:23:27;-2.50;99.90
19878;DHT22;10101;52.204;9.910;2022-12-11T15:25:56;-2.60;99.90
19878;DHT22;10101;52.204;9.910;2022-12-11T15:28:28;-2.70;99.90
19878;DHT22;10101;52.204;9.910;2022-12-11T15:30:57;-2.80;99.90
19878;DHT22;10101;52.204;9.910;2022-12-11T15:33:24;-2.80;99.90
19878;DHT22;10101;52.204;9.910;2022-12-11T15:36:00;-2.90;99.90
19878;DHT22;10101;52.204;9.910;2022-12-11T15:38:33;-2.90;99.90
19878;DHT22;10101;52.204;9.910;2022-12-11T15:41:02;-3.00;99.90
19878;DHT22;10101;52.204;9.910;2022-12-11T15:43:33;-2.90;99.90
19878;DHT22;10101;52.204;9.910;2022-12-11T15:46:00;-3.00;99.90
19878;DHT22;10101;52.204;9.910;2022-12-11T15:48:27;-3.00;99.90
19878;DHT22;10101;52.204;9.910;2022-12-11T15:50:54;-3.00;99.90